sensor_id;sensor_type;location;lat;lon;timestamp;pressure;altitude;pressure_sealevel;temperature;humidity
31285;BME280;56605;51.516;6.742;2023-08-30T00:00:50;100681.78;;;19.40;100.00
31285;BME280;56605;51.516;6.742;2023-08-30T00:03:15;100672.03;;;19.39;100.00
31285;BME280;56605;51.516;6.742;2023-08-30T00:05:41;100679.41;;;19.32;100.00
31285;BME280;56605;51.516;6.742;2023-08-30T00:08:07;100681.00;;;19.39;100.00
31285;BME280;56605;51.516;6.742;2023-08-30T00:10:33;100675.53;;;19.58;100.00
31285;BME280;56605;51.516;6.742;2023-08-30T00:12:58;100673.44;;;19.60;100.00
31285;BME280;56605;51.516;6.742;2023-08-30T00:15:23;100670.94;;;19.59;100.00
31285;BME280;56605;51.516;6.742;2023-08-30T00:17:49;100673.31;;;19.67;100.00
31285;BME280;56605;51.516;6.742;2023-08-30T00:20:20;100683.78;;;19.63;100.00
31285;BME280;56605;51.516;6.742;2023-08-30T00:22:46;100672.34;;;19.61;100.00
31285;BME280;56605;51.516;6.742;2023-08-30T00:25:12;100672.81;;;19.09;100.00
31285;BME280;56605;51.516;6.742;2023-08-30T00:27:37;100676.75;;;19.13;100.00
31285;BME280;56605;51.516;6.742;2023-08-30T00:30:03;100679.53;;;19.37;100.00
31285;BME280;56605;51.516;6.742;2023-08-30T00:32:29;100674.38;;;18.98;100.00
31285;BME280;56605;51.516;6.742;2023-08-30T00:34:54;100670.09;;;19.09;100.00
31285;BME280;56605;51.516;6.742;2023-08-30T00:37:19;100669.56;;;19.37;100.00
31285;BME280;56605;51.516;6.742;2023-08-30T00:39:44;100679.13;;;19.03;100.00
31285;BME280;56605;51.516;6.742;2023-08-30T00:42:10;100670.16;;;19.21;100.00
31285;BME280;56605;51.516;6.742;2023-08-30T00:44:35;100671.78;;;19.10;100.00
31285;BME280;56605;51.516;6.742;2023-08-30T00:47:02;100669.03;;;18.91;100.00
31285;BME280;56605;51.516;6.742;2023-08-30T00:49:32;100668.09;;;18.60;100.00
31285;BME280;56605;51.516;6.742;2023-08-30T00:51:59;100668.91;;;18.86;100.00
31285;BME280;56605;51.516;6.742;2023-08-30T00:54:26;100670.09;;;18.71;100.00
31285;BME280;56605;51.516;6.742;2023-08-30T00:56:51;100671.81;;;18.84;100.00
31285;BME280;56605;51.516;6.742;2023-08-30T00:59:17;100669.91;;;18.85;100.00
31285;BME280;56605;51.516;6.742;2023-08-30T01:01:43;100671.19;;;18.82;100.00
31285;BME280;56605;51.516;6.742;2023-08-30T01:04:09;100668.13;;;18.79;100.00
31285;BME280;56605;51.516;6.742;2023-08-30T01:06:34;100662.25;;;18.63;100.00
31285;BME280;56605;51.516;6.742;2023-08-30T01:09:01;100661.22;;;18.83;100.00
31285;BME280;56605;51.516;6.742;2023-08-30T01:12:00;100657.84;;;18.87;100.00
31285;BME280;56605;51.516;6.742;2023-08-30T01:14:29;100648.06;;;18.86;100.00
31285;BME280;56605;51.516;6.742;2023-08-30T01:16:56;100648.50;;;18.65;100.00
31285;BME280;56605;51.516;6.742;2023-08-30T01:22:14;100645.66;;;18.97;100.00
31285;BME280;56605;51.516;6.742;2023-08-30T01:25:00;100638.91;;;18.87;100.00
31285;BME280;56605;51.516;6.742;2023-08-30T01:27:33;100643.50;;;18.68;100.00
31285;BME280;56605;51.516;6.742;2023-08-30T01:30:01;100637.88;;;18.25;100.00
31285;BME280;56605;51.516;6.742;2023-08-30T01:32:27;100639.78;;;17.93;100.00
31285;BME280;56605;51.516;6.742;2023-08-30T01:34:54;100642.44;;;18.25;100.00
31285;BME280;56605;51.516;6.742;2023-08-30T01:37:21;100638.91;;;18.69;100.00
31285;BME280;56605;51.516;6.742;2023-08-30T01:39:46;100640.94;;;18.92;100.00
31285;BME280;56605;51.516;6.742;2023-08-30T01:42:13;100640.78;;;18.68;100.00
31285;BME280;56605;51.516;6.742;2023-08-30T01:44:40;100644.56;;;18.86;100.00
31285;BME280;56605;51.516;6.742;2023-08-30T01:47:09;100642.44;;;18.88;100.00
31285;BME280;56605;51.516;6.742;2023-08-30T01:49:36;100646.78;;;18.52;100.00
31285;BME280;56605;51.516;6.742;2023-08-30T01:52:03;100639.66;;;18.57;100.00
31285;BME280;56605;51.516;6.742;2023-08-30T01:54:28;100645.31;;;18.30;100.00
31285;BME280;56605;51.516;6.742;2023-08-30T01:56:55;100637.38;;;18.35;100.00
31285;BME280;56605;51.516;6.742;2023-08-30T01:59:20;100642.06;;;18.21;100.00
31285;BME280;56605;51.516;6.742;2023-08-30T02:01:45;100633.72;;;18.23;100.00
31285;BME280;56605;51.516;6.742;2023-08-30T02:04:10;100637.91;;;18.44;100.00
31285;BME280;56605;51.516;6.742;2023-08-30T02:06:42;100628.91;;;18.50;100.00
31285;BME280;56605;51.516;6.742;2023-08-30T02:09:18;100622.84;;;18.55;100.00
31285;BME280;56605;51.516;6.742;2023-08-30T02:11:45;100626.44;;;18.68;100.00
31285;BME280;56605;51.516;6.742;2023-08-30T02:14:13;100634.31;;;18.50;100.00
31285;BME280;56605;51.516;6.742;2023-08-30T02:16:42;100636.72;;;18.40;100.00
31285;BME280;56605;51.516;6.742;2023-08-30T02:19:08;100637.47;;;18.47;100.00
31285;BME280;56605;51.516;6.742;2023-08-30T02:21:33;100632.75;;;18.61;100.00
31285;BME280;56605;51.516;6.742;2023-08-30T02:23:59;100635.25;;;18.37;100.00
31285;BME280;56605;51.516;6.742;2023-08-30T02:26:24;100647.91;;;18.18;100.00
31285;BME280;56605;51.516;6.742;2023-08-30T02:28:49;100648.69;;;18.25;100.00
31285;BME280;56605;51.516;6.742;2023-08-30T02:31:15;100628.66;;;18.33;100.00
31285;BME280;56605;51.516;6.742;2023-08-30T02:33:40;100633.94;;;18.47;100.00
31285;BME280;56605;51.516;6.742;2023-08-30T02:36:05;100628.06;;;18.50;100.00
31285;BME280;56605;51.516;6.742;2023-08-30T02:38:31;100628.31;;;18.48;100.00
31285;BME280;56605;51.516;6.742;2023-08-30T02:40:56;100628.06;;;18.50;100.00
31285;BME280;56605;51.516;6.742;2023-08-30T02:43:22;100623.44;;;18.57;100.00
31285;BME280;56605;51.516;6.742;2023-08-30T02:45:47;100621.13;;;18.61;100.00
31285;BME280;56605;51.516;6.742;2023-08-30T02:48:12;100624.19;;;18.65;100.00
31285;BME280;56605;51.516;6.742;2023-08-30T02:50:38;100626.31;;;18.62;100.00
31285;BME280;56605;51.516;6.742;2023-08-30T02:53:03;100626.13;;;18.76;100.00
31285;BME280;56605;51.516;6.742;2023-08-30T02:55:30;100630.63;;;18.82;100.00
31285;BME280;56605;51.516;6.742;2023-08-30T02:57:56;100622.56;;;18.38;100.00
31285;BME280;56605;51.516;6.742;2023-08-30T03:00:21;100617.34;;;18.81;100.00
31285;BME280;56605;51.516;6.742;2023-08-30T03:02:46;100608.53;;;18.29;100.00
31285;BME280;56605;51.516;6.742;2023-08-30T03:05:11;100601.66;;;18.08;100.00
31285;BME280;56605;51.516;6.742;2023-08-30T03:07:37;100604.06;;;18.42;100.00
31285;BME280;56605;51.516;6.742;2023-08-30T03:10:02;100607.38;;;18.62;100.00
31285;BME280;56605;51.516;6.742;2023-08-30T03:12:28;100605.06;;;18.22;100.00
31285;BME280;56605;51.516;6.742;2023-08-30T03:14:54;100601.94;;;18.44;100.00
31285;BME280;56605;51.516;6.742;2023-08-30T03:17:19;100600.88;;;18.26;100.00
31285;BME280;56605;51.516;6.742;2023-08-30T03:19:44;100597.34;;;18.25;100.00
31285;BME280;56605;51.516;6.742;2023-08-30T03:22:10;100590.56;;;18.16;100.00
31285;BME280;56605;51.516;6.742;2023-08-30T03:24:35;100604.09;;;18.16;100.00
31285;BME280;56605;51.516;6.742;2023-08-30T03:27:00;100593.03;;;18.43;100.00
31285;BME280;56605;51.516;6.742;2023-08-30T03:29:25;100589.31;;;18.37;100.00
31285;BME280;56605;51.516;6.742;2023-08-30T03:31:51;100589.47;;;18.43;100.00
31285;BME280;56605;51.516;6.742;2023-08-30T03:34:16;100589.56;;;17.85;100.00
31285;BME280;56605;51.516;6.742;2023-08-30T03:36:41;100585.91;;;17.98;100.00
31285;BME280;56605;51.516;6.742;2023-08-30T03:39:09;100588.41;;;18.25;100.00
31285;BME280;56605;51.516;6.742;2023-08-30T03:41:34;100585.91;;;17.72;100.00
31285;BME280;56605;51.516;6.742;2023-08-30T03:43:59;100583.84;;;17.42;100.00
31285;BME280;56605;51.516;6.742;2023-08-30T03:46:25;100585.47;;;17.75;100.00
31285;BME280;56605;51.516;6.742;2023-08-30T03:48:50;100585.34;;;17.64;100.00
31285;BME280;56605;51.516;6.742;2023-08-30T03:51:15;100577.81;;;17.72;100.00
31285;BME280;56605;51.516;6.742;2023-08-30T03:53:41;100569.94;;;17.71;100.00
31285;BME280;56605;51.516;6.742;2023-08-30T03:56:06;100577.97;;;17.52;100.00
31285;BME280;56605;51.516;6.742;2023-08-30T03:58:32;100572.84;;;17.95;100.00
31285;BME280;56605;51.516;6.742;2023-08-30T04:00:58;100572.41;;;17.98;100.00
31285;BME280;56605;51.516;6.742;2023-08-30T04:03:23;100577.09;;;18.09;100.00
31285;BME280;56605;51.516;6.742;2023-08-30T04:05:54;100579.72;;;17.40;100.00
31285;BME280;56605;51.516;6.742;2023-08-30T04:08:20;100578.09;;;17.90;100.00
31285;BME280;56605;51.516;6.742;2023-08-30T04:10:46;100574.69;;;18.01;100.00
31285;BME280;56605;51.516;6.742;2023-08-30T04:13:13;100577.16;;;17.77;100.00
31285;BME280;56605;51.516;6.742;2023-08-30T04:15:38;100562.94;;;17.63;100.00
31285;BME280;56605;51.516;6.742;2023-08-30T04:18:05;100562.72;;;17.65;100.00
31285;BME280;56605;51.516;6.742;2023-08-30T04:20:31;100561.19;;;17.75;100.00
31285;BME280;56605;51.516;6.742;2023-08-30T04:22:58;100551.44;;;18.00;100.00
31285;BME280;56605;51.516;6.742;2023-08-30T04:25:26;100544.31;;;17.80;100.00
31285;BME280;56605;51.516;6.742;2023-08-30T04:27:51;100546.97;;;17.61;100.00
31285;BME280;56605;51.516;6.742;2023-08-30T04:30:17;100538.16;;;17.73;100.00
31285;BME280;56605;51.516;6.742;2023-08-30T04:32:42;100543.41;;;17.68;100.00
31285;BME280;56605;51.516;6.742;2023-08-30T04:35:08;100530.66;;;17.75;100.00
31285;BME280;56605;51.516;6.742;2023-08-30T04:37:33;100532.63;;;17.61;100.00
31285;BME280;56605;51.516;6.742;2023-08-30T04:39:59;100534.91;;;17.64;100.00
31285;BME280;56605;51.516;6.742;2023-08-30T04:42:24;100530.66;;;17.75;100.00
31285;BME280;56605;51.516;6.742;2023-08-30T04:44:51;100529.72;;;17.62;100.00
31285;BME280;56605;51.516;6.742;2023-08-30T04:47:16;100521.53;;;17.95;100.00
31285;BME280;56605;51.516;6.742;2023-08-30T04:49:42;100535.53;;;17.66;100.00
31285;BME280;56605;51.516;6.742;2023-08-30T04:52:07;100533.72;;;17.53;100.00
31285;BME280;56605;51.516;6.742;2023-08-30T04:54:32;100525.72;;;17.72;100.00
31285;BME280;56605;51.516;6.742;2023-08-30T04:56:57;100521.44;;;17.83;100.00
31285;BME280;56605;51.516;6.742;2023-08-30T04:59:23;100516.97;;;17.95;100.00
31285;BME280;56605;51.516;6.742;2023-08-30T05:01:49;100521.50;;;17.76;100.00
31285;BME280;56605;51.516;6.742;2023-08-30T05:04:16;100514.81;;;17.60;100.00
31285;BME280;56605;51.516;6.742;2023-08-30T05:06:41;100515.13;;;17.70;100.00
31285;BME280;56605;51.516;6.742;2023-08-30T05:09:07;100508.09;;;18.51;100.00
31285;BME280;56605;51.516;6.742;2023-08-30T05:11:32;100512.13;;;18.04;100.00
31285;BME280;56605;51.516;6.742;2023-08-30T05:13:57;100508.88;;;17.95;100.00
31285;BME280;56605;51.516;6.742;2023-08-30T05:16:23;100502.38;;;18.03;100.00
31285;BME280;56605;51.516;6.742;2023-08-30T05:18:48;100495.91;;;18.04;100.00
31285;BME280;56605;51.516;6.742;2023-08-30T05:21:14;100497.88;;;17.71;100.00
31285;BME280;56605;51.516;6.742;2023-08-30T05:23:39;100500.91;;;17.56;100.00
31285;BME280;56605;51.516;6.742;2023-08-30T05:26:08;100494.47;;;17.57;100.00
31285;BME280;56605;51.516;6.742;2023-08-30T05:28:33;100496.13;;;17.58;100.00
31285;BME280;56605;51.516;6.742;2023-08-30T05:30:59;100500.84;;;17.38;100.00
31285;BME280;56605;51.516;6.742;2023-08-30T05:33:24;100489.75;;;17.53;100.00
31285;BME280;56605;51.516;6.742;2023-08-30T05:35:49;100487.31;;;17.70;100.00
31285;BME280;56605;51.516;6.742;2023-08-30T05:38:15;100481.47;;;17.92;100.00
31285;BME280;56605;51.516;6.742;2023-08-30T05:40:40;100478.13;;;17.96;100.00
31285;BME280;56605;51.516;6.742;2023-08-30T05:43:10;100474.88;;;18.13;100.00
31285;BME280;56605;51.516;6.742;2023-08-30T05:45:35;100471.38;;;17.87;100.00
31285;BME280;56605;51.516;6.742;2023-08-30T05:48:00;100469.00;;;17.97;100.00
31285;BME280;56605;51.516;6.742;2023-08-30T05:50:26;100471.09;;;18.14;100.00
31285;BME280;56605;51.516;6.742;2023-08-30T05:52:51;100468.19;;;18.16;100.00
31285;BME280;56605;51.516;6.742;2023-08-30T05:55:16;100464.09;;;18.62;100.00
31285;BME280;56605;51.516;6.742;2023-08-30T05:57:42;100467.66;;;18.44;100.00
31285;BME280;56605;51.516;6.742;2023-08-30T06:00:07;100468.78;;;18.55;100.00
31285;BME280;56605;51.516;6.742;2023-08-30T06:02:34;100458.53;;;18.57;100.00
31285;BME280;56605;51.516;6.742;2023-08-30T06:04:59;100457.69;;;18.57;100.00
31285;BME280;56605;51.516;6.742;2023-08-30T06:07:24;100449.22;;;18.84;100.00
31285;BME280;56605;51.516;6.742;2023-08-30T06:09:50;100449.34;;;18.77;100.00
31285;BME280;56605;51.516;6.742;2023-08-30T06:12:15;100448.59;;;19.00;100.00
31285;BME280;56605;51.516;6.742;2023-08-30T06:14:41;100448.78;;;19.30;100.00
31285;BME280;56605;51.516;6.742;2023-08-30T06:17:07;100444.00;;;19.56;100.00
31285;BME280;56605;51.516;6.742;2023-08-30T06:19:32;100444.00;;;19.01;100.00
31285;BME280;56605;51.516;6.742;2023-08-30T06:21:58;100443.53;;;19.04;100.00
31285;BME280;56605;51.516;6.742;2023-08-30T06:24:23;100443.38;;;18.87;100.00
31285;BME280;56605;51.516;6.742;2023-08-30T06:26:48;100436.78;;;18.83;100.00
31285;BME280;56605;51.516;6.742;2023-08-30T06:29:14;100435.44;;;18.73;100.00
31285;BME280;56605;51.516;6.742;2023-08-30T06:31:39;100437.19;;;18.37;100.00
31285;BME280;56605;51.516;6.742;2023-08-30T06:34:06;100440.25;;;18.41;100.00
31285;BME280;56605;51.516;6.742;2023-08-30T06:36:32;100438.47;;;18.65;100.00
31285;BME280;56605;51.516;6.742;2023-08-30T06:38:57;100431.44;;;19.07;100.00
31285;BME280;56605;51.516;6.742;2023-08-30T06:41:22;100434.66;;;19.16;100.00
31285;BME280;56605;51.516;6.742;2023-08-30T06:43:48;100445.53;;;18.66;100.00
31285;BME280;56605;51.516;6.742;2023-08-30T06:46:13;100445.44;;;18.73;100.00
31285;BME280;56605;51.516;6.742;2023-08-30T06:48:39;100436.81;;;18.95;100.00
31285;BME280;56605;51.516;6.742;2023-08-30T06:51:04;100432.19;;;19.14;100.00
31285;BME280;56605;51.516;6.742;2023-08-30T06:53:29;100435.84;;;18.89;100.00
31285;BME280;56605;51.516;6.742;2023-08-30T06:55:59;100436.53;;;19.27;100.00
31285;BME280;56605;51.516;6.742;2023-08-30T06:58:25;100424.44;;;19.42;100.00
31285;BME280;56605;51.516;6.742;2023-08-30T07:00:50;100429.25;;;19.51;100.00
31285;BME280;56605;51.516;6.742;2023-08-30T07:03:15;100426.22;;;19.60;100.00
31285;BME280;56605;51.516;6.742;2023-08-30T07:05:41;100420.56;;;19.49;100.00
31285;BME280;56605;51.516;6.742;2023-08-30T07:08:08;100415.13;;;19.73;100.00
31285;BME280;56605;51.516;6.742;2023-08-30T07:10:34;100415.13;;;19.85;100.00
31285;BME280;56605;51.516;6.742;2023-08-30T07:12:59;100408.75;;;20.04;100.00
31285;BME280;56605;51.516;6.742;2023-08-30T07:15:25;100410.28;;;19.87;100.00
31285;BME280;56605;51.516;6.742;2023-08-30T07:17:50;100406.41;;;19.83;100.00
31285;BME280;56605;51.516;6.742;2023-08-30T07:20:16;100405.44;;;20.13;100.00
31285;BME280;56605;51.516;6.742;2023-08-30T07:22:41;100406.09;;;20.33;100.00
31285;BME280;56605;51.516;6.742;2023-08-30T07:25:07;100401.97;;;20.18;100.00
31285;BME280;56605;51.516;6.742;2023-08-30T07:27:35;100402.63;;;20.37;100.00
31285;BME280;56605;51.516;6.742;2023-08-30T07:30:00;100406.72;;;20.52;100.00
31285;BME280;56605;51.516;6.742;2023-08-30T07:32:26;100407.00;;;20.85;100.00
31285;BME280;56605;51.516;6.742;2023-08-30T07:34:52;100411.94;;;20.88;100.00
31285;BME280;56605;51.516;6.742;2023-08-30T07:37:18;100402.63;;;20.84;100.00
31285;BME280;56605;51.516;6.742;2023-08-30T07:39:44;100405.75;;;21.22;100.00
31285;BME280;56605;51.516;6.742;2023-08-30T07:42:10;100399.66;;;20.97;100.00
31285;BME280;56605;51.516;6.742;2023-08-30T07:44:35;100402.94;;;21.16;100.00
31285;BME280;56605;51.516;6.742;2023-08-30T07:47:00;100409.16;;;20.83;100.00
31285;BME280;56605;51.516;6.742;2023-08-30T07:49:26;100391.19;;;20.94;100.00
31285;BME280;56605;51.516;6.742;2023-08-30T07:51:51;100405.38;;;21.35;100.00
31285;BME280;56605;51.516;6.742;2023-08-30T07:54:16;100400.31;;;21.22;100.00
31285;BME280;56605;51.516;6.742;2023-08-30T07:56:41;100402.09;;;21.16;98.78
31285;BME280;56605;51.516;6.742;2023-08-30T07:59:07;100397.28;;;21.58;98.68
31285;BME280;56605;51.516;6.742;2023-08-30T08:01:32;100404.16;;;21.43;95.67
31285;BME280;56605;51.516;6.742;2023-08-30T08:03:57;100407.09;;;21.59;96.71
31285;BME280;56605;51.516;6.742;2023-08-30T08:06:23;100398.31;;;21.91;94.60
31285;BME280;56605;51.516;6.742;2023-08-30T08:08:48;100404.69;;;21.79;91.31
31285;BME280;56605;51.516;6.742;2023-08-30T08:11:13;100395.84;;;21.89;92.30
31285;BME280;56605;51.516;6.742;2023-08-30T08:13:38;100400.88;;;21.63;89.40
31285;BME280;56605;51.516;6.742;2023-08-30T08:16:04;100402.13;;;21.33;89.72
31285;BME280;56605;51.516;6.742;2023-08-30T08:18:29;100399.91;;;21.87;90.47
31285;BME280;56605;51.516;6.742;2023-08-30T08:20:54;100409.91;;;21.29;91.12
31285;BME280;56605;51.516;6.742;2023-08-30T08:23:20;100403.69;;;21.29;90.96
31285;BME280;56605;51.516;6.742;2023-08-30T08:25:45;100421.09;;;21.16;92.92
31285;BME280;56605;51.516;6.742;2023-08-30T08:28:10;100408.50;;;20.93;93.88
31285;BME280;56605;51.516;6.742;2023-08-30T08:30:36;100423.66;;;21.23;93.38
31285;BME280;56605;51.516;6.742;2023-08-30T08:33:01;100414.34;;;21.01;94.84
31285;BME280;56605;51.516;6.742;2023-08-30T08:35:26;100417.50;;;20.93;93.18
31285;BME280;56605;51.516;6.742;2023-08-30T08:37:52;100420.47;;;21.26;92.48
31285;BME280;56605;51.516;6.742;2023-08-30T08:40:17;100413.28;;;21.37;91.97
31285;BME280;56605;51.516;6.742;2023-08-30T08:42:43;100404.94;;;22.00;89.86
31285;BME280;56605;51.516;6.742;2023-08-30T08:45:09;100408.22;;;22.02;89.59
31285;BME280;56605;51.516;6.742;2023-08-30T08:47:36;100416.50;;;21.90;89.68
31285;BME280;56605;51.516;6.742;2023-08-30T08:50:02;100418.00;;;21.24;93.33
31285;BME280;56605;51.516;6.742;2023-08-30T08:52:29;100413.72;;;21.11;95.05
31285;BME280;56605;51.516;6.742;2023-08-30T08:54:54;100407.25;;;20.83;98.63
31285;BME280;56605;51.516;6.742;2023-08-30T08:57:20;100411.09;;;20.70;100.00
31285;BME280;56605;51.516;6.742;2023-08-30T08:59:46;100425.94;;;20.97;100.00
31285;BME280;56605;51.516;6.742;2023-08-30T09:02:13;100409.59;;;20.33;100.00
31285;BME280;56605;51.516;6.742;2023-08-30T09:04:39;100409.00;;;20.43;100.00
31285;BME280;56605;51.516;6.742;2023-08-30T09:07:05;100416.13;;;20.20;100.00
31285;BME280;56605;51.516;6.742;2023-08-30T09:09:30;100420.19;;;19.82;100.00
31285;BME280;56605;51.516;6.742;2023-08-30T09:11:56;100417.47;;;19.58;100.00
31285;BME280;56605;51.516;6.742;2023-08-30T09:14:21;100419.84;;;19.42;100.00
31285;BME280;56605;51.516;6.742;2023-08-30T09:17:03;100418.59;;;18.59;100.00
31285;BME280;56605;51.516;6.742;2023-08-30T09:19:29;100415.69;;;18.42;100.00
31285;BME280;56605;51.516;6.742;2023-08-30T09:21:58;100405.47;;;18.14;100.00
31285;BME280;56605;51.516;6.742;2023-08-30T09:24:24;100409.84;;;18.45;100.00
31285;BME280;56605;51.516;6.742;2023-08-30T09:26:51;100408.66;;;18.41;100.00
31285;BME280;56605;51.516;6.742;2023-08-30T09:29:18;100410.97;;;18.37;100.00
31285;BME280;56605;51.516;6.742;2023-08-30T09:31:44;100411.56;;;18.40;100.00
31285;BME280;56605;51.516;6.742;2023-08-30T09:34:10;100401.22;;;18.36;100.00
31285;BME280;56605;51.516;6.742;2023-08-30T09:36:41;100396.59;;;18.06;100.00
31285;BME280;56605;51.516;6.742;2023-08-30T09:39:09;100395.75;;;18.24;100.00
31285;BME280;56605;51.516;6.742;2023-08-30T09:41:36;100385.66;;;18.50;100.00
31285;BME280;56605;51.516;6.742;2023-08-30T09:44:11;100390.00;;;18.21;100.00
31285;BME280;56605;51.516;6.742;2023-08-30T09:46:50;100379.81;;;18.35;100.00
31285;BME280;56605;51.516;6.742;2023-08-30T09:49:18;100384.88;;;18.12;100.00
31285;BME280;56605;51.516;6.742;2023-08-30T09:51:47;100379.25;;;18.33;100.00
31285;BME280;56605;51.516;6.742;2023-08-30T09:54:17;100376.38;;;18.46;100.00
31285;BME280;56605;51.516;6.742;2023-08-30T09:56:44;100386.19;;;18.41;100.00
31285;BME280;56605;51.516;6.742;2023-08-30T09:59:10;100384.94;;;18.24;100.00
31285;BME280;56605;51.516;6.742;2023-08-30T10:01:37;100393.44;;;18.28;100.00
31285;BME280;56605;51.516;6.742;2023-08-30T10:04:02;100386.28;;;18.34;100.00
31285;BME280;56605;51.516;6.742;2023-08-30T10:06:29;100380.06;;;18.33;100.00
31285;BME280;56605;51.516;6.742;2023-08-30T10:08:56;100381.38;;;18.73;100.00
31285;BME280;56605;51.516;6.742;2023-08-30T10:11:23;100374.94;;;18.98;100.00
31285;BME280;56605;51.516;6.742;2023-08-30T10:13:51;100380.13;;;19.00;100.00
31285;BME280;56605;51.516;6.742;2023-08-30T10:16:19;100388.88;;;18.59;100.00
31285;BME280;56605;51.516;6.742;2023-08-30T10:18:50;100384.31;;;18.10;100.00
31285;BME280;56605;51.516;6.742;2023-08-30T10:21:18;100375.44;;;18.03;100.00
31285;BME280;56605;51.516;6.742;2023-08-30T10:23:44;100381.16;;;18.14;100.00
31285;BME280;56605;51.516;6.742;2023-08-30T10:26:11;100392.66;;;18.40;100.00
31285;BME280;56605;51.516;6.742;2023-08-30T10:28:38;100384.50;;;18.58;100.00
31285;BME280;56605;51.516;6.742;2023-08-30T10:31:05;100383.25;;;18.42;100.00
31285;BME280;56605;51.516;6.742;2023-08-30T10:33:31;100383.25;;;17.93;100.00
31285;BME280;56605;51.516;6.742;2023-08-30T10:36:05;100383.03;;;17.94;100.00
31285;BME280;56605;51.516;6.742;2023-08-30T10:38:32;100382.25;;;17.68;100.00
31285;BME280;56605;51.516;6.742;2023-08-30T10:41:07;100386.00;;;17.67;100.00
31285;BME280;56605;51.516;6.742;2023-08-30T10:43:35;100386.44;;;17.64;100.00
31285;BME280;56605;51.516;6.742;2023-08-30T10:46:05;100381.22;;;17.88;100.00
31285;BME280;56605;51.516;6.742;2023-08-30T10:48:37;100383.00;;;17.75;100.00
31285;BME280;56605;51.516;6.742;2023-08-30T10:51:03;100376.63;;;17.51;100.00
31285;BME280;56605;51.516;6.742;2023-08-30T10:53:30;100393.78;;;17.75;100.00
31285;BME280;56605;51.516;6.742;2023-08-30T10:56:10;100375.94;;;17.93;100.00
31285;BME280;56605;51.516;6.742;2023-08-30T10:58:40;100395.28;;;17.90;100.00
31285;BME280;56605;51.516;6.742;2023-08-30T11:01:09;100390.00;;;18.21;100.00
31285;BME280;56605;51.516;6.742;2023-08-30T11:03:35;100393.66;;;17.89;100.00
31285;BME280;56605;51.516;6.742;2023-08-30T11:06:00;100382.03;;;17.51;100.00
31285;BME280;56605;51.516;6.742;2023-08-30T11:08:28;100380.16;;;17.70;100.00
31285;BME280;56605;51.516;6.742;2023-08-30T11:11:05;100382.41;;;17.73;100.00
31285;BME280;56605;51.516;6.742;2023-08-30T11:13:31;100382.78;;;17.77;100.00
31285;BME280;56605;51.516;6.742;2023-08-30T11:16:00;100369.28;;;17.58;100.00
31285;BME280;56605;51.516;6.742;2023-08-30T11:18:26;100380.69;;;17.98;100.00
31285;BME280;56605;51.516;6.742;2023-08-30T11:21:01;100368.00;;;17.98;100.00
31285;BME280;56605;51.516;6.742;2023-08-30T11:23:27;100372.56;;;17.98;100.00
31285;BME280;56605;51.516;6.742;2023-08-30T11:25:52;100372.44;;;17.74;100.00
31285;BME280;56605;51.516;6.742;2023-08-30T11:28:22;100368.97;;;17.67;100.00
31285;BME280;56605;51.516;6.742;2023-08-30T11:30:48;100372.38;;;17.81;100.00
31285;BME280;56605;51.516;6.742;2023-08-30T11:33:16;100371.06;;;18.02;100.00
31285;BME280;56605;51.516;6.742;2023-08-30T11:35:42;100371.31;;;17.82;100.00
31285;BME280;56605;51.516;6.742;2023-08-30T11:38:07;100371.91;;;18.03;100.00
31285;BME280;56605;51.516;6.742;2023-08-30T11:40:34;100354.53;;;17.80;100.00
31285;BME280;56605;51.516;6.742;2023-08-30T11:43:01;100375.38;;;18.10;100.00
31285;BME280;56605;51.516;6.742;2023-08-30T11:45:28;100365.41;;;18.10;100.00
31285;BME280;56605;51.516;6.742;2023-08-30T11:47:53;100357.25;;;18.29;100.00
31285;BME280;56605;51.516;6.742;2023-08-30T11:50:19;100366.50;;;18.03;100.00
31285;BME280;56605;51.516;6.742;2023-08-30T11:52:45;100372.06;;;18.08;100.00
31285;BME280;56605;51.516;6.742;2023-08-30T11:55:12;100368.22;;;18.16;100.00
31285;BME280;56605;51.516;6.742;2023-08-30T11:57:38;100368.69;;;18.12;100.00
31285;BME280;56605;51.516;6.742;2023-08-30T12:00:10;100369.97;;;18.41;100.00
31285;BME280;56605;51.516;6.742;2023-08-30T12:02:36;100371.09;;;18.52;100.00
31285;BME280;56605;51.516;6.742;2023-08-30T12:05:01;100372.53;;;18.66;100.00
31285;BME280;56605;51.516;6.742;2023-08-30T12:07:26;100383.53;;;18.53;100.00
31285;BME280;56605;51.516;6.742;2023-08-30T12:09:52;100377.72;;;18.68;100.00
31285;BME280;56605;51.516;6.742;2023-08-30T12:12:18;100373.72;;;18.70;100.00
31285;BME280;56605;51.516;6.742;2023-08-30T12:14:44;100369.28;;;18.45;100.00
31285;BME280;56605;51.516;6.742;2023-08-30T12:17:09;100365.56;;;18.58;100.00
31285;BME280;56605;51.516;6.742;2023-08-30T12:19:37;100376.94;;;18.91;100.00
31285;BME280;56605;51.516;6.742;2023-08-30T12:22:06;100368.44;;;18.75;100.00
31285;BME280;56605;51.516;6.742;2023-08-30T12:24:43;100368.84;;;18.48;100.00
31285;BME280;56605;51.516;6.742;2023-08-30T12:27:08;100365.34;;;18.60;100.00
31285;BME280;56605;51.516;6.742;2023-08-30T12:29:34;100363.34;;;18.67;100.00
31285;BME280;56605;51.516;6.742;2023-08-30T12:31:59;100356.47;;;18.95;100.00
31285;BME280;56605;51.516;6.742;2023-08-30T12:34:24;100346.41;;;18.60;100.00
31285;BME280;56605;51.516;6.742;2023-08-30T12:36:50;100335.75;;;18.65;100.00
31285;BME280;56605;51.516;6.742;2023-08-30T12:39:16;100331.97;;;18.66;100.00